Time;durP1;ratioP1;P1;durP2;ratioP2;P2;SDS_P1;SDS_P2;PMS_P1;PMS_P2;Temp;Humidity;BMP_temperature;BMP_pressure;BME280_temperature;BME280_humidity;BME280_pressure;Samples;Min_cycle;Max_cycle;Signal;HPM_P1;HPM_P2
2023/05/13 04:32:30;;;;;;;32.63;13.48;;;15.00;77.30;;;;;;4910863;29;20052;-83
2023/05/13 04:34:55;;;;;;;30.23;14.77;;;15.00;77.10;;;;;;4901667;29;20023;-83
2023/05/13 04:37:21;;;;;;;29.90;14.55;;;15.10;77.00;;;;;;4921704;29;20092;-83
2023/05/13 04:39:47;;;;;;;35.60;14.85;;;15.00;77.30;;;;;;4897836;29;20111;-84
2023/05/13 04:42:13;;;;;;;32.83;14.73;;;15.00;77.50;;;;;;4882899;29;20033;-83
2023/05/13 04:44:39;;;;;;;34.67;14.15;;;15.00;77.30;;;;;;4900088;29;20484;-83
2023/05/13 04:47:05;;;;;;;34.20;13.75;;;15.00;77.10;;;;;;4899610;29;20067;-83
2023/05/13 04:49:30;;;;;;;33.65;14.73;;;15.00;77.30;;;;;;4888179;29;20424;-83
2023/05/13 04:51:57;;;;;;;33.95;14.88;;;15.00;77.10;;;;;;4917341;29;20114;-83
2023/05/13 04:54:22;;;;;;;34.33;14.43;;;15.00;77.10;;;;;;4937525;29;20027;-83
2023/05/13 04:56:48;;;;;;;32.08;13.88;;;15.00;77.20;;;;;;4937459;29;20024;-83
2023/05/13 04:59:14;;;;;;;40.75;15.45;;;15.00;76.70;;;;;;4897214;29;20033;-83
2023/05/13 05:01:40;;;;;;;33.97;13.95;;;15.00;76.90;;;;;;4895948;29;20126;-84
2023/05/13 05:04:05;;;;;;;29.90;13.13;;;15.00;76.90;;;;;;4924394;29;20032;-83
2023/05/13 05:06:31;;;;;;;31.00;13.32;;;15.00;76.40;;;;;;4918040;29;20040;-83
2023/05/13 05:08:57;;;;;;;30.55;13.80;;;15.00;76.70;;;;;;4911130;29;20024;-83
2023/05/13 05:11:23;;;;;;;29.58;13.57;;;15.00;76.80;;;;;;4914501;29;20028;-83
2023/05/13 05:13:49;;;;;;;30.65;13.45;;;15.00;76.80;;;;;;4923912;29;20079;-83
2023/05/13 05:16:14;;;;;;;32.40;14.52;;;15.00;76.60;;;;;;4934686;29;20024;-83
2023/05/13 05:18:42;;;;;;;39.75;14.90;;;15.00;76.80;;;;;;4903017;29;20037;-79
2023/05/13 05:21:08;;;;;;;30.33;13.20;;;15.10;76.90;;;;;;4912497;29;20644;-78
2023/05/13 05:23:34;;;;;;;31.60;14.13;;;15.10;77.00;;;;;;4921828;29;20032;-78
2023/05/13 05:26:00;;;;;;;28.48;14.38;;;15.10;77.00;;;;;;4921095;29;20111;-81
2023/05/13 05:28:26;;;;;;;31.73;13.50;;;15.10;76.40;;;;;;4904825;29;20538;-82
2023/05/13 05:30:51;;;;;;;27.30;13.23;;;15.10;75.80;;;;;;4903766;29;20517;-81
2023/05/13 05:33:17;;;;;;;29.95;14.43;;;15.10;76.10;;;;;;4921403;29;20406;-80
2023/05/13 05:35:43;;;;;;;28.38;13.30;;;15.10;76.60;;;;;;4921296;29;20163;-86
2023/05/13 05:38:10;;;;;;;33.08;16.13;;;15.20;76.60;;;;;;4921156;29;20031;-82
2023/05/13 05:40:39;;;;;;;27.02;14.15;;;15.10;76.40;;;;;;4903924;29;20024;-84
2023/05/13 05:43:06;;;;;;;30.85;13.63;;;15.10;76.40;;;;;;4885688;29;20424;-85
2023/05/13 05:45:33;;;;;;;30.42;14.48;;;15.10;76.60;;;;;;4918845;29;20036;-84
2023/05/13 05:47:59;;;;;;;32.97;14.43;;;15.10;76.50;;;;;;4935471;29;20027;-83
2023/05/13 05:50:25;;;;;;;32.40;14.07;;;15.10;76.10;;;;;;4902402;29;20084;-81
2023/05/13 05:52:50;;;;;;;37.47;15.50;;;15.10;76.30;;;;;;4905155;29;20029;-79
2023/05/13 05:55:16;;;;;;;32.55;13.63;;;15.10;76.80;;;;;;4885670;29;20148;-78
2023/05/13 05:57:42;;;;;;;35.45;14.88;;;15.10;77.10;;;;;;4906114;29;20029;-80
2023/05/13 06:00:08;;;;;;;35.13;14.13;;;15.10;77.00;;;;;;4915595;29;20043;-80
2023/05/13 06:02:33;;;;;;;33.65;12.35;;;15.20;76.90;;;;;;4920203;29;20036;-80
2023/05/13 06:04:59;;;;;;;35.13;15.93;;;15.20;77.30;;;;;;4921289;29;20406;-81
2023/05/13 06:07:25;;;;;;;32.60;14.68;;;15.20;77.20;;;;;;4920461;29;20028;-80
2023/05/13 06:09:50;;;;;;;32.33;14.95;;;15.20;76.90;;;;;;4921031;29;20036;-80
2023/05/13 06:12:16;;;;;;;31.42;14.70;;;15.20;76.90;;;;;;4922290;29;20028;-80
2023/05/13 06:14:42;;;;;;;38.15;15.18;;;15.30;76.90;;;;;;4914882;29;20040;-81
2023/05/13 06:17:07;;;;;;;38.40;15.45;;;15.30;77.00;;;;;;4888217;29;20036;-80
2023/05/13 06:19:33;;;;;;;37.90;14.88;;;15.40;76.60;;;;;;4920585;29;20028;-80
2023/05/13 06:21:58;;;;;;;42.35;15.40;;;15.30;76.60;;;;;;4920868;29;20035;-82
2023/05/13 06:24:24;;;;;;;34.13;14.13;;;15.30;76.30;;;;;;4916930;29;20033;-82
2023/05/13 06:26:50;;;;;;;34.65;15.02;;;15.30;76.80;;;;;;4901795;29;20484;-79
2023/05/13 06:29:15;;;;;;;36.58;15.18;;;15.30;76.80;;;;;;4901883;29;20557;-79
2023/05/13 06:31:41;;;;;;;41.28;14.90;;;15.30;76.70;;;;;;4891018;29;20059;-81
2023/05/13 06:34:07;;;;;;;39.25;15.65;;;15.30;76.90;;;;;;4907071;29;20028;-83
2023/05/13 06:36:32;;;;;;;40.67;15.80;;;15.30;76.90;;;;;;4895247;29;20028;-82
2023/05/13 06:38:59;;;;;;;33.90;14.55;;;15.30;76.90;;;;;;4920339;29;20772;-79
2023/05/13 06:41:25;;;;;;;36.22;14.88;;;15.30;77.00;;;;;;4901555;29;20039;-82
2023/05/13 06:43:50;;;;;;;33.80;14.65;;;15.30;76.80;;;;;;4902928;29;20477;-80
2023/05/13 06:46:16;;;;;;;35.92;14.63;;;15.30;76.60;;;;;;4918736;29;20785;-81
2023/05/13 06:48:42;;;;;;;32.38;13.85;;;15.30;76.70;;;;;;4917535;29;20040;-85
2023/05/13 06:51:07;;;;;;;38.08;14.60;;;15.30;76.70;;;;;;4908612;29;20032;-84
2023/05/13 06:53:33;;;;;;;28.52;13.30;;;15.40;76.40;;;;;;4917187;29;20052;-83
2023/05/13 06:55:58;;;;;;;28.80;15.00;;;15.40;76.50;;;;;;4911683;29;20457;-84
2023/05/13 06:58:24;;;;;;;32.05;13.75;;;15.40;76.30;;;;;;4911904;29;20028;-84
2023/05/13 07:00:50;;;;;;;28.38;13.27;;;15.50;76.20;;;;;;4916847;29;20028;-84
2023/05/13 07:03:16;;;;;;;32.08;14.10;;;15.50;76.30;;;;;;4917657;29;20530;-84
2023/05/13 07:05:42;;;;;;;31.92;14.38;;;15.40;76.10;;;;;;4882198;29;20192;-84
2023/05/13 07:08:08;;;;;;;30.63;12.57;;;15.40;76.00;;;;;;4904362;29;20201;-82
2023/05/13 07:10:35;;;;;;;29.45;13.70;;;15.40;76.30;;;;;;4923646;29;20064;-83
2023/05/13 07:13:01;;;;;;;26.30;11.63;;;15.40;76.20;;;;;;4899616;29;20495;-81
2023/05/13 07:15:27;;;;;;;30.42;12.70;;;15.40;76.30;;;;;;4889857;29;20100;-82
2023/05/13 07:17:53;;;;;;;28.50;12.50;;;15.40;76.40;;;;;;4908918;29;20031;-84
2023/05/13 07:20:25;;;;;;;27.02;12.50;;;15.50;76.10;;;;;;4917447;29;20033;-85
2023/05/13 07:22:53;;;;;;;25.42;11.52;;;15.60;75.90;;;;;;4921348;29;20035;-91
2023/05/13 07:25:19;;;;;;;23.33;11.88;;;15.70;75.40;;;;;;4904435;29;20060;-92
2023/05/13 07:27:45;;;;;;;24.80;11.95;;;15.70;75.20;;;;;;4895643;29;20033;-91
2023/05/13 07:30:14;;;;;;;24.52;11.32;;;15.80;75.20;;;;;;4908450;29;20478;-93
2023/05/13 07:32:40;;;;;;;27.67;11.43;;;15.80;75.40;;;;;;4903308;29;20043;-91
2023/05/13 07:35:06;;;;;;;20.90;11.52;;;15.90;75.20;;;;;;4904212;29;20029;-92
2023/05/13 07:37:32;;;;;;;21.25;11.50;;;15.90;75.00;;;;;;4898350;29;20093;-90
2023/05/13 07:39:57;;;;;;;27.65;12.70;;;15.90;75.10;;;;;;4903768;29;20330;-93
2023/05/13 07:42:28;;;;;;;24.90;12.05;;;15.90;74.90;;;;;;4903139;29;20380;-92
2023/05/13 07:44:59;;;;;;;26.83;12.68;;;16.00;74.60;;;;;;4901485;29;20060;-91
2023/05/13 07:47:47;;;;;;;25.15;11.48;;;16.00;74.80;;;;;;4888186;29;20036;-92
2023/05/13 07:50:16;;;;;;;26.00;11.32;;;16.10;74.50;;;;;;4886683;29;20043;-92
2023/05/13 07:52:42;;;;;;;21.60;11.23;;;16.10;74.40;;;;;;4890962;29;20036;-91
2023/05/13 07:55:09;;;;;;;25.25;11.38;;;16.10;74.60;;;;;;4890075;29;20135;-92
2023/05/13 07:57:40;;;;;;;24.48;11.35;;;16.10;74.70;;;;;;4886557;29;20032;-93
2023/05/13 08:00:17;;;;;;;25.67;10.73;;;16.10;74.50;;;;;;4896692;29;20032;-92
2023/05/13 08:02:44;;;;;;;20.80;10.15;;;16.20;74.30;;;;;;4896400;29;20028;-92
2023/05/13 08:05:14;;;;;;;23.42;11.73;;;16.20;74.10;;;;;;4919250;29;20028;-92
2023/05/13 08:07:43;;;;;;;31.55;11.45;;;16.30;74.00;;;;;;4894014;29;20486;-92
2023/05/13 08:10:12;;;;;;;22.08;11.38;;;16.40;73.50;;;;;;4905036;29;20111;-92
2023/05/13 08:12:40;;;;;;;21.65;11.50;;;16.40;73.60;;;;;;4922804;29;20034;-91
2023/05/13 08:15:15;;;;;;;21.70;10.77;;;16.40;73.70;;;;;;4906736;29;20510;-92
2023/05/13 08:17:41;;;;;;;24.60;10.93;;;16.40;73.30;;;;;;4885696;29;20027;-91
2023/05/13 08:20:10;;;;;;;20.73;11.63;;;16.50;73.40;;;;;;4919763;29;20107;-91
2023/05/13 08:22:35;;;;;;;19.90;11.43;;;16.50;73.00;;;;;;4904060;29;20027;-91
2023/05/13 08:25:02;;;;;;;26.08;12.45;;;16.60;73.10;;;;;;4903736;29;20032;-92
2023/05/13 08:27:30;;;;;;;22.58;10.35;;;16.60;73.00;;;;;;4903369;29;20036;-92
2023/05/13 08:29:58;;;;;;;22.92;10.52;;;16.60;73.00;;;;;;4903859;29;20060;-91
2023/05/13 08:32:26;;;;;;;25.33;12.45;;;16.70;72.70;;;;;;4889376;29;20056;-91
2023/05/13 08:34:52;;;;;;;28.25;12.30;;;16.60;72.70;;;;;;4897224;29;20028;-89
2023/05/13 08:37:18;;;;;;;26.42;12.73;;;16.70;72.70;;;;;;4901591;29;20039;-82
2023/05/13 08:39:44;;;;;;;24.13;11.95;;;16.70;72.60;;;;;;4918183;29;20044;-81
2023/05/13 08:42:10;;;;;;;20.73;10.75;;;16.80;72.20;;;;;;4915234;29;20039;-81
2023/05/13 08:44:42;;;;;;;20.95;12.00;;;16.90;72.10;;;;;;4887665;29;20127;-81
2023/05/13 08:47:31;;;;;;;18.80;11.48;;;17.00;71.70;;;;;;4903674;29;20510;-86
2023/05/13 08:49:57;;;;;;;22.60;11.27;;;17.20;71.40;;;;;;4903666;29;20080;-83
2023/05/13 08:52:23;;;;;;;17.88;10.70;;;17.30;70.70;;;;;;4903861;29;20029;-84
2023/05/13 08:54:49;;;;;;;18.83;10.02;;;17.30;70.60;;;;;;4899611;29;20101;-79
2023/05/13 08:57:15;;;;;;;24.92;11.50;;;17.40;70.10;;;;;;4914609;29;20067;-78
2023/05/13 08:59:41;;;;;;;18.90;10.45;;;17.50;69.60;;;;;;4911315;29;20407;-80
2023/05/13 09:02:08;;;;;;;20.50;11.55;;;17.50;69.40;;;;;;4909908;29;20035;-82
2023/05/13 09:04:36;;;;;;;24.25;10.95;;;17.40;69.70;;;;;;4904018;29;20498;-84
2023/05/13 09:07:06;;;;;;;22.20;11.05;;;17.50;70.00;;;;;;4911157;29;20036;-83
2023/05/13 09:09:32;;;;;;;;;;;17.40;70.30;;;;;;4922242;29;20405;-82
2023/05/13 09:11:57;;;;;;;20.70;11.38;;;17.30;70.30;;;;;;4937734;29;19914;-78
2023/05/13 09:14:29;;;;;;;26.92;11.90;;;17.30;70.30;;;;;;4908471;29;20519;-79
2023/05/13 09:16:56;;;;;;;24.77;12.57;;;17.30;70.30;;;;;;4886016;29;20036;-78
2023/05/13 09:19:24;;;;;;;24.88;12.23;;;17.40;70.00;;;;;;4903251;29;20488;-81
2023/05/13 09:21:52;;;;;;;19.45;11.43;;;17.40;70.10;;;;;;4893344;29;20044;-88
2023/05/13 09:24:18;;;;;;;22.33;11.48;;;17.50;69.70;;;;;;4902336;29;20036;-88
2023/05/13 09:26:45;;;;;;;22.27;12.23;;;17.40;69.60;;;;;;4904647;29;20040;-85
2023/05/13 09:29:13;;;;;;;25.25;13.07;;;17.50;69.80;;;;;;4915857;29;20036;-84
2023/05/13 09:31:39;;;;;;;24.92;12.05;;;17.60;69.80;;;;;;4903542;29;20076;-87
2023/05/13 09:34:04;;;;;;;24.83;12.60;;;17.70;69.30;;;;;;4924472;29;20024;-88
2023/05/13 09:36:31;;;;;;;24.63;12.60;;;17.80;68.90;;;;;;4921868;29;20165;-85
2023/05/13 09:38:58;;;;;;;23.83;11.88;;;17.90;69.00;;;;;;4909901;29;20028;-90
2023/05/13 09:41:26;;;;;;;21.48;10.65;;;18.40;68.00;;;;;;4886166;29;20035;-89
2023/05/13 09:43:52;;;;;;;21.27;10.75;;;19.80;65.40;;;;;;4886789;29;20093;-91
2023/05/13 09:46:17;;;;;;;17.08;9.15;;;20.80;63.00;;;;;;4902010;29;20032;-86
2023/05/13 09:48:43;;;;;;;17.50;9.75;;;20.80;61.00;;;;;;4902668;29;20067;-85
2023/05/13 09:51:09;;;;;;;18.50;9.38;;;20.80;60.80;;;;;;4886211;29;20099;-89
2023/05/13 09:53:34;;;;;;;19.02;9.35;;;21.30;59.80;;;;;;4902885;29;20036;-81
2023/05/13 09:56:00;;;;;;;17.33;9.77;;;22.20;56.90;;;;;;4908743;29;20040;-85
2023/05/13 09:58:28;;;;;;;16.65;8.90;;;22.60;56.40;;;;;;4901660;29;20044;-83
2023/05/13 10:00:53;;;;;;;15.95;9.60;;;22.30;56.30;;;;;;4900959;29;20036;-87
2023/05/13 10:03:20;;;;;;;14.68;9.65;;;22.40;55.40;;;;;;4902536;29;20035;-86
2023/05/13 10:05:48;;;;;;;20.65;9.30;;;22.00;55.70;;;;;;4900677;29;20032;-80
2023/05/13 10:08:16;;;;;;;14.70;8.98;;;21.80;56.00;;;;;;4892157;29;20511;-88
2023/05/13 10:10:45;;;;;;;17.42;9.57;;;21.70;56.70;;;;;;4926628;29;20151;-81
2023/05/13 10:13:19;;;;;;;19.15;9.10;;;21.20;57.50;;;;;;4902378;29;20037;-91
2023/05/13 10:15:53;;;;;;;18.67;10.15;;;20.80;59.00;;;;;;4904050;29;20029;-88
2023/05/13 10:18:20;;;;;;;15.55;9.32;;;20.60;59.60;;;;;;4904795;29;20028;-91
2023/05/13 10:20:46;;;;;;;19.08;9.27;;;20.70;59.50;;;;;;4913382;29;20043;-88
2023/05/13 10:23:12;;;;;;;16.00;9.48;;;20.60;59.40;;;;;;4885295;29;20033;-90
2023/05/13 10:25:38;;;;;;;20.27;8.75;;;20.60;59.30;;;;;;4902103;29;20036;-90
2023/05/13 10:28:04;;;;;;;18.60;8.77;;;20.70;59.50;;;;;;4897616;29;20467;-90
2023/05/13 10:30:32;;;;;;;18.17;9.65;;;20.80;59.10;;;;;;4898671;29;20132;-89
2023/05/13 10:33:00;;;;;;;19.20;9.15;;;20.80;59.50;;;;;;4898207;29;20131;-89
2023/05/13 10:35:30;;;;;;;14.60;8.63;;;20.80;59.80;;;;;;4906150;29;20021;-92
2023/05/13 10:38:01;;;;;;;;;;;20.80;59.00;;;;;;4895319;29;20039;-89
2023/05/13 10:40:55;;;;;;;16.75;8.43;;;20.80;59.50;;;;;;4902137;29;19908;-90
2023/05/13 10:43:27;;;;;;;13.32;8.55;;;20.80;59.30;;;;;;4902633;29;20060;-90
2023/05/13 10:46:00;;;;;;;12.60;7.32;;;20.80;59.40;;;;;;4884996;29;20040;-90
2023/05/13 10:48:36;;;;;;;12.93;8.45;;;20.90;59.10;;;;;;4899636;29;20040;-89
2023/05/13 10:51:06;;;;;;;11.70;7.78;;;20.80;59.40;;;;;;4903775;29;20047;-90
2023/05/13 10:53:36;;;;;;;15.00;7.05;;;20.90;58.40;;;;;;4904379;29;20042;-90
2023/05/13 10:56:06;;;;;;;;;;;20.90;58.20;;;;;;4920590;29;20104;-89
2023/05/13 10:58:33;;;;;;;13.13;7.43;;;20.80;57.80;;;;;;4903194;29;19917;-89
2023/05/13 11:01:28;;;;;;;13.82;7.57;;;21.00;58.00;;;;;;4918368;29;20024;-89
2023/05/13 11:03:59;;;;;;;13.45;7.47;;;21.20;57.60;;;;;;4903149;29;20063;-89
2023/05/13 11:06:38;;;;;;;10.48;6.93;;;21.40;57.30;;;;;;4923115;29;20028;-89
2023/05/13 11:09:11;;;;;;;17.60;7.68;;;21.40;57.10;;;;;;4907821;29;20511;-87
2023/05/13 11:11:37;;;;;;;16.30;8.38;;;21.40;56.70;;;;;;4916130;29;20027;-88
2023/05/13 11:14:29;;;;;;;12.77;7.68;;;21.30;56.10;;;;;;4910270;29;20089;-89
2023/05/13 11:17:01;;;;;;;16.50;8.07;;;21.30;55.70;;;;;;4900856;29;20025;-89
2023/05/13 11:19:28;;;;;;;13.70;7.78;;;21.40;56.60;;;;;;4900174;29;20028;-89
2023/05/13 11:21:56;;;;;;;15.88;7.40;;;21.50;57.00;;;;;;4900839;29;20052;-89
2023/05/13 11:24:22;;;;;;;13.15;8.65;;;21.50;57.40;;;;;;4887649;29;20025;-90
2023/05/13 11:26:49;;;;;;;15.20;8.63;;;21.50;57.30;;;;;;4884219;29;20052;-89
2023/05/13 11:29:37;;;;;;;15.80;9.18;;;21.60;56.60;;;;;;4883785;29;20451;-88
2023/05/13 11:32:04;;;;;;;18.38;9.50;;;21.50;56.80;;;;;;4883856;29;20235;-88
2023/05/13 11:34:32;;;;;;;15.30;7.82;;;21.50;57.40;;;;;;4918660;29;20479;-87
2023/05/13 11:37:04;;;;;;;12.68;8.35;;;21.70;57.70;;;;;;4902676;29;20020;-88
2023/05/13 11:39:30;;;;;;;19.25;8.63;;;21.70;57.20;;;;;;4902722;29;20039;-89
2023/05/13 11:41:56;;;;;;;17.40;8.88;;;21.70;57.00;;;;;;4904579;29;20031;-88
2023/05/13 11:44:24;;;;;;;14.18;8.98;;;21.70;57.20;;;;;;4902937;29;20032;-89
2023/05/13 11:46:57;;;;;;;18.73;10.30;;;21.70;57.00;;;;;;4919741;29;20032;-89
2023/05/13 11:49:32;;;;;;;16.10;10.13;;;21.70;56.40;;;;;;4899778;29;20044;-88
2023/05/13 11:52:11;;;;;;;15.73;10.30;;;21.80;56.60;;;;;;4883583;29;20127;-89
2023/05/13 11:54:42;;;;;;;19.80;10.43;;;21.90;56.60;;;;;;4883728;29;20028;-88
2023/05/13 11:57:34;;;;;;;18.33;10.80;;;22.00;57.30;;;;;;4884272;29;20028;-88
2023/05/13 12:00:06;;;;;;;14.85;8.98;;;22.00;55.30;;;;;;4884052;29;20060;-88
2023/05/13 12:02:38;;;;;;;14.25;9.52;;;21.90;55.30;;;;;;4900838;29;20036;-90
2023/05/13 12:05:08;;;;;;;17.10;9.80;;;22.00;54.80;;;;;;4893792;29;20115;-89
2023/05/13 12:07:35;;;;;;;17.13;10.05;;;22.00;55.30;;;;;;4883586;29;20029;-88
2023/05/13 12:10:03;;;;;;;17.35;10.32;;;21.90;55.30;;;;;;4893120;29;20411;-88
2023/05/13 12:12:31;;;;;;;15.95;9.52;;;21.80;56.20;;;;;;4938537;29;20024;-89
2023/05/13 12:15:06;;;;;;;16.10;10.48;;;21.70;55.60;;;;;;4899682;29;20029;-87
2023/05/13 12:17:32;;;;;;;16.88;10.38;;;21.70;56.40;;;;;;4887827;29;20037;-88
2023/05/13 12:20:10;;;;;;;14.55;9.15;;;21.60;57.00;;;;;;4904221;29;20063;-88
2023/05/13 12:22:48;;;;;;;14.45;10.23;;;21.50;56.80;;;;;;4887035;29;20029;-87
2023/05/13 12:25:35;;;;;;;17.67;10.38;;;21.40;56.40;;;;;;4904183;29;20036;-88
2023/05/13 12:28:08;;;;;;;14.30;9.73;;;21.40;56.20;;;;;;4905042;29;20035;-87
2023/05/13 12:30:38;;;;;;;18.85;9.70;;;21.30;56.30;;;;;;4886687;29;20049;-88
2023/05/13 12:33:06;;;;;;;19.48;10.43;;;21.30;57.20;;;;;;4903726;29;20033;-86
2023/05/13 12:35:32;;;;;;;15.52;9.93;;;21.20;56.50;;;;;;4892817;29;20108;-86
2023/05/13 12:38:03;;;;;;;19.27;10.15;;;21.20;56.50;;;;;;4903901;29;20073;-87
2023/05/13 12:40:29;;;;;;;17.00;11.00;;;21.20;56.10;;;;;;4887044;29;20028;-87
2023/05/13 12:42:59;;;;;;;14.65;9.75;;;21.30;56.60;;;;;;4903435;29;20085;-87
2023/05/13 12:45:32;;;;;;;19.00;9.85;;;21.50;55.90;;;;;;4905156;29;20036;-88
2023/05/13 12:47:59;;;;;;;15.90;9.45;;;21.50;55.80;;;;;;4900729;29;20043;-87
2023/05/13 12:50:25;;;;;;;16.25;9.20;;;21.50;56.00;;;;;;4902388;29;20060;-87
2023/05/13 12:52:52;;;;;;;15.15;9.18;;;21.50;55.80;;;;;;4903541;29;20028;-87
2023/05/13 12:55:18;;;;;;;17.98;10.00;;;21.80;55.90;;;;;;4886849;29;20032;-86
2023/05/13 12:58:01;;;;;;;18.58;9.80;;;22.00;55.50;;;;;;4903811;29;20823;-87
2023/05/13 13:00:28;;;;;;;19.80;9.52;;;22.00;55.70;;;;;;4902974;29;20076;-88
2023/05/13 13:02:54;;;;;;;13.25;9.15;;;22.00;56.20;;;;;;4907614;29;20027;-87
2023/05/13 13:05:24;;;;;;;18.02;10.18;;;21.90;55.60;;;;;;4904859;29;20044;-87
2023/05/13 13:07:50;;;;;;;18.30;9.40;;;22.00;55.30;;;;;;4901790;29;20035;-87
2023/05/13 13:10:16;;;;;;;15.55;9.57;;;22.00;54.80;;;;;;4938583;29;20122;-87
2023/05/13 13:12:42;;;;;;;19.48;10.25;;;22.10;55.00;;;;;;4922108;29;20032;-87
2023/05/13 13:15:09;;;;;;;17.88;9.18;;;22.30;54.60;;;;;;4913303;29;20067;-87
2023/05/13 13:17:35;;;;;;;11.88;8.60;;;22.30;54.10;;;;;;4902786;29;20029;-87
2023/05/13 13:20:00;;;;;;;12.98;8.27;;;22.10;54.60;;;;;;4903226;29;20059;-89
2023/05/13 13:22:26;;;;;;;13.63;9.10;;;22.00;55.60;;;;;;4886207;29;20040;-87
2023/05/13 13:24:52;;;;;;;17.60;9.82;;;21.90;55.10;;;;;;4887892;29;20048;-87
2023/05/13 13:27:18;;;;;;;21.58;9.23;;;22.00;56.00;;;;;;4889854;29;20123;-87
2023/05/13 13:29:44;;;;;;;16.00;9.23;;;22.10;55.50;;;;;;4904971;29;20060;-86
2023/05/13 13:32:09;;;;;;;18.02;9.93;;;22.00;55.10;;;;;;4891755;29;20049;-86
2023/05/13 13:34:36;;;;;;;16.30;9.65;;;21.90;54.80;;;;;;4912791;29;20036;-88
2023/05/13 13:37:02;;;;;;;14.70;9.52;;;21.80;55.30;;;;;;4904534;29;20028;-87
2023/05/13 13:39:28;;;;;;;17.08;9.68;;;21.70;55.30;;;;;;4908235;29;20031;-87
2023/05/13 13:41:53;;;;;;;15.35;9.38;;;21.70;55.40;;;;;;4902441;29;20080;-87
2023/05/13 13:44:19;;;;;;;16.30;9.25;;;21.70;55.90;;;;;;4920463;29;20024;-87
2023/05/13 13:46:45;;;;;;;17.73;9.43;;;21.80;55.60;;;;;;4902679;29;20040;-87
2023/05/13 13:49:10;;;;;;;19.52;9.88;;;22.00;54.90;;;;;;4902728;29;20111;-87
2023/05/13 13:51:36;;;;;;;18.77;10.82;;;22.10;55.30;;;;;;4902654;29;20037;-88
2023/05/13 13:54:06;;;;;;;16.55;10.20;;;22.10;54.90;;;;;;4886180;29;20117;-87
2023/05/13 13:56:31;;;;;;;18.52;9.57;;;22.10;54.80;;;;;;4902241;29;20042;-86
2023/05/13 13:58:57;;;;;;;14.48;9.00;;;21.90;55.20;;;;;;4894796;29;20040;-88
2023/05/13 14:01:23;;;;;;;16.50;10.15;;;21.90;56.10;;;;;;4904214;29;20039;-87
2023/05/13 14:03:49;;;;;;;14.57;9.77;;;21.80;55.70;;;;;;4903896;29;20098;-87
2023/05/13 14:06:15;;;;;;;16.52;10.15;;;21.70;55.90;;;;;;4903564;29;20081;-87
2023/05/13 14:08:41;;;;;;;17.25;9.95;;;21.60;56.40;;;;;;4904101;29;20032;-88
2023/05/13 14:11:06;;;;;;;15.02;9.23;;;21.80;56.30;;;;;;4930279;29;20032;-86
2023/05/13 14:13:32;;;;;;;17.45;9.63;;;21.90;56.00;;;;;;4886967;29;20036;-86
2023/05/13 14:15:57;;;;;;;17.70;10.38;;;21.80;55.30;;;;;;4901569;29;20029;-87
2023/05/13 14:18:23;;;;;;;18.70;9.93;;;22.00;55.30;;;;;;4901794;29;20105;-87
2023/05/13 14:20:49;;;;;;;16.58;9.77;;;22.00;54.90;;;;;;4902155;29;20032;-87
2023/05/13 14:23:16;;;;;;;19.00;10.05;;;22.00;55.10;;;;;;4885116;29;20041;-87
2023/05/13 14:25:43;;;;;;;19.88;10.70;;;22.20;55.50;;;;;;4885235;29;20498;-87
2023/05/13 14:28:10;;;;;;;17.52;10.10;;;22.00;55.20;;;;;;4899889;29;20107;-87
2023/05/13 14:30:36;;;;;;;17.20;9.70;;;21.90;55.40;;;;;;4903491;29;20085;-86
2023/05/13 14:33:01;;;;;;;16.38;9.73;;;22.00;56.30;;;;;;4920327;29;20040;-86
2023/05/13 14:35:27;;;;;;;20.10;10.75;;;21.80;55.60;;;;;;4902915;29;20028;-86
2023/05/13 14:37:53;;;;;;;15.57;9.68;;;21.70;55.80;;;;;;4916280;29;20071;-86
2023/05/13 14:40:18;;;;;;;14.10;9.93;;;21.80;56.20;;;;;;4903694;29;20032;-87
2023/05/13 14:42:44;;;;;;;17.30;10.23;;;21.90;56.00;;;;;;4904559;29;20554;-87
2023/05/13 14:45:10;;;;;;;14.13;10.27;;;21.80;55.70;;;;;;4901508;29;20499;-86
2023/05/13 14:47:35;;;;;;;18.30;10.52;;;21.70;56.90;;;;;;4884919;29;20039;-85
2023/05/13 14:50:01;;;;;;;17.17;9.93;;;21.80;56.90;;;;;;4892967;29;20155;-86
2023/05/13 14:52:27;;;;;;;16.95;10.48;;;21.80;56.70;;;;;;4901225;29;20036;-85
2023/05/13 14:54:53;;;;;;;15.45;9.50;;;21.80;56.20;;;;;;4900734;29;20558;-86
2023/05/13 14:57:18;;;;;;;16.02;9.50;;;21.70;56.40;;;;;;4906290;29;20035;-85
2023/05/13 14:59:44;;;;;;;18.30;9.90;;;21.80;56.60;;;;;;4904216;29;20036;-86
2023/05/13 15:02:12;;;;;;;16.05;10.32;;;21.90;56.30;;;;;;4903368;29;20164;-86
2023/05/13 15:04:38;;;;;;;15.85;10.32;;;22.00;56.40;;;;;;4906351;29;20126;-86
2023/05/13 15:07:04;;;;;;;22.27;10.35;;;21.90;56.20;;;;;;4902785;29;20039;-86
2023/05/13 15:09:29;;;;;;;14.65;9.85;;;21.80;56.70;;;;;;4903166;29;20114;-86
2023/05/13 15:11:55;;;;;;;17.08;10.45;;;21.90;56.80;;;;;;4918113;29;20486;-86
2023/05/13 15:14:24;;;;;;;17.95;10.02;;;22.00;56.20;;;;;;4905830;29;20028;-86
2023/05/13 15:16:50;;;;;;;17.67;10.40;;;22.10;56.60;;;;;;4901065;29;20551;-86
2023/05/13 15:19:17;;;;;;;22.08;10.88;;;22.10;56.30;;;;;;4901072;29;20036;-85
2023/05/13 15:21:42;;;;;;;15.13;9.88;;;21.80;55.90;;;;;;4884176;29;20028;-84
2023/05/13 15:24:08;;;;;;;17.27;10.73;;;21.50;56.70;;;;;;4900735;29;20563;-85
2023/05/13 15:26:34;;;;;;;19.75;10.27;;;21.30;57.30;;;;;;4900934;29;20028;-86
2023/05/13 15:28:59;;;;;;;22.33;11.10;;;21.40;58.10;;;;;;4898043;29;20027;-85
2023/05/13 15:31:25;;;;;;;18.10;10.70;;;21.40;57.90;;;;;;4900230;29;20128;-85
2023/05/13 15:33:50;;;;;;;18.42;11.00;;;21.60;57.70;;;;;;4902516;29;20040;-86
2023/05/13 15:36:16;;;;;;;15.63;10.77;;;21.80;57.50;;;;;;4919930;29;20024;-86
2023/05/13 15:38:42;;;;;;;18.52;10.38;;;21.70;57.20;;;;;;4912612;29;20034;-86
2023/05/13 15:41:08;;;;;;;18.73;10.98;;;21.60;56.90;;;;;;4901630;29;20029;-86
2023/05/13 15:43:33;;;;;;;20.13;12.02;;;21.50;57.30;;;;;;4900687;29;20100;-86
2023/05/13 15:45:59;;;;;;;19.02;10.57;;;21.40;56.50;;;;;;4900686;29;20035;-86
2023/05/13 15:48:25;;;;;;;15.73;10.65;;;21.50;57.20;;;;;;4899893;29;20881;-85
2023/05/13 15:50:51;;;;;;;17.08;10.35;;;21.50;57.60;;;;;;4883856;29;20035;-85
2023/05/13 15:53:17;;;;;;;20.48;10.82;;;21.60;57.60;;;;;;4883808;29;20036;-85
2023/05/13 15:55:42;;;;;;;14.93;10.35;;;21.50;56.90;;;;;;4900659;29;20403;-86
2023/05/13 15:58:08;;;;;;;20.23;10.77;;;21.50;56.60;;;;;;4883783;29;20491;-85
2023/05/13 16:00:34;;;;;;;20.33;10.45;;;21.50;56.50;;;;;;4899392;29;20033;-87
2023/05/13 16:03:00;;;;;;;19.33;12.23;;;21.40;57.00;;;;;;4911620;29;20043;-86
2023/05/13 16:05:25;;;;;;;21.02;10.43;;;21.30;56.70;;;;;;4901345;29;20039;-85
2023/05/13 16:07:51;;;;;;;16.15;11.20;;;21.20;57.00;;;;;;4901476;29;20044;-86
2023/05/13 16:10:16;;;;;;;18.70;11.93;;;21.00;57.30;;;;;;4905035;29;20042;-85
2023/05/13 16:12:42;;;;;;;17.92;10.95;;;20.90;56.90;;;;;;4921324;29;20042;-84
2023/05/13 16:15:09;;;;;;;18.95;10.82;;;20.90;57.20;;;;;;4927217;29;20053;-85
2023/05/13 16:17:35;;;;;;;16.45;10.38;;;20.80;58.20;;;;;;4906145;29;20035;-85
2023/05/13 16:20:01;;;;;;;21.52;11.13;;;20.90;58.10;;;;;;4915085;29;20017;-84
2023/05/13 16:22:28;;;;;;;19.30;11.57;;;20.90;58.10;;;;;;4898618;29;20069;-85
2023/05/13 16:25:01;;;;;;;18.00;11.63;;;21.00;57.60;;;;;;4883000;29;20024;-85
2023/05/13 16:27:27;;;;;;;16.55;11.25;;;21.00;57.40;;;;;;4907333;29;20043;-85
2023/05/13 16:29:55;;;;;;;18.00;10.57;;;20.90;57.50;;;;;;4902129;29;20067;-85
2023/05/13 16:32:20;;;;;;;18.30;11.50;;;20.90;57.70;;;;;;4908930;29;20052;-85
2023/05/13 16:34:46;;;;;;;22.30;11.25;;;20.80;57.70;;;;;;4895046;29;20020;-84
2023/05/13 16:37:12;;;;;;;23.35;11.50;;;20.80;57.70;;;;;;4901828;29;20028;-84
2023/05/13 16:39:37;;;;;;;20.50;11.57;;;20.70;58.20;;;;;;4918519;29;20047;-85
2023/05/13 16:42:03;;;;;;;17.90;11.88;;;20.60;58.40;;;;;;4908267;29;20557;-85
2023/05/13 16:44:29;;;;;;;16.92;11.02;;;20.50;58.70;;;;;;4900377;29;20025;-85
2023/05/13 16:46:55;;;;;;;15.75;10.65;;;20.50;58.90;;;;;;4897795;29;20448;-84
2023/05/13 16:49:20;;;;;;;21.80;11.25;;;20.40;58.90;;;;;;4902088;29;20021;-84
2023/05/13 16:51:46;;;;;;;20.58;11.57;;;20.30;58.80;;;;;;4887708;29;20039;-84
2023/05/13 16:54:12;;;;;;;18.90;11.00;;;20.30;58.80;;;;;;4883152;29;20025;-85
2023/05/13 16:56:37;;;;;;;18.45;12.20;;;20.40;59.10;;;;;;4899820;29;20464;-85
2023/05/13 16:59:03;;;;;;;16.60;10.88;;;20.30;59.20;;;;;;4899825;29;20028;-85
2023/05/13 17:01:29;;;;;;;15.25;10.38;;;20.40;59.40;;;;;;4902766;29;20028;-84
2023/05/13 17:03:55;;;;;;;19.60;10.90;;;20.30;59.50;;;;;;4908579;29;20116;-85